sensor_id;sensor_type;location;lat;lon;timestamp;pressure;altitude;pressure_sealevel;temperature;humidity
80184;BME280;69682;52.138;5.440;2023-09-19T00:01:34;100760.34;;;14.19;86.46
80184;BME280;69682;52.138;5.440;2023-09-19T00:04:01;100759.81;;;14.15;86.59
80184;BME280;69682;52.138;5.440;2023-09-19T00:06:29;100770.53;;;14.15;86.63
80184;BME280;69682;52.138;5.440;2023-09-19T00:08:58;100769.53;;;14.16;86.66
80184;BME280;69682;52.138;5.440;2023-09-19T00:11:29;100768.53;;;14.17;86.73
80184;BME280;69682;52.138;5.440;2023-09-19T00:13:55;100785.72;;;14.15;86.37
80184;BME280;69682;52.138;5.440;2023-09-19T00:16:25;100781.22;;;14.15;86.13
80184;BME280;69682;52.138;5.440;2023-09-19T00:18:52;100785.59;;;14.06;86.15
80184;BME280;69682;52.138;5.440;2023-09-19T00:21:19;100783.63;;;13.99;86.64
80184;BME280;69682;52.138;5.440;2023-09-19T00:23:46;100785.00;;;14.03;86.45
80184;BME280;69682;52.138;5.440;2023-09-19T00:26:13;100782.63;;;14.00;86.65
80184;BME280;69682;52.138;5.440;2023-09-19T00:28:40;100785.75;;;13.95;86.72
80184;BME280;69682;52.138;5.440;2023-09-19T00:31:09;100780.22;;;13.97;86.85
80184;BME280;69682;52.138;5.440;2023-09-19T00:33:36;100777.53;;;13.97;86.64
80184;BME280;69682;52.138;5.440;2023-09-19T00:36:04;100789.69;;;14.01;87.05
80184;BME280;69682;52.138;5.440;2023-09-19T00:38:32;100791.94;;;14.05;86.63
80184;BME280;69682;52.138;5.440;2023-09-19T00:40:59;100789.41;;;14.04;86.82
80184;BME280;69682;52.138;5.440;2023-09-19T00:43:26;100792.81;;;14.06;86.59
80184;BME280;69682;52.138;5.440;2023-09-19T00:45:56;100788.41;;;14.05;86.83
80184;BME280;69682;52.138;5.440;2023-09-19T00:48:25;100790.38;;;14.03;86.60
80184;BME280;69682;52.138;5.440;2023-09-19T00:50:53;100792.94;;;14.04;86.98
80184;BME280;69682;52.138;5.440;2023-09-19T00:53:21;100798.16;;;14.06;86.89
80184;BME280;69682;52.138;5.440;2023-09-19T00:55:51;100794.47;;;14.07;87.18
80184;BME280;69682;52.138;5.440;2023-09-19T00:58:18;100799.56;;;14.10;86.80
80184;BME280;69682;52.138;5.440;2023-09-19T01:00:47;100805.59;;;14.02;86.99
80184;BME280;69682;52.138;5.440;2023-09-19T01:03:14;100810.00;;;14.03;87.21
80184;BME280;69682;52.138;5.440;2023-09-19T01:05:41;100812.81;;;14.02;87.38
80184;BME280;69682;52.138;5.440;2023-09-19T01:08:09;100811.56;;;14.06;87.49
80184;BME280;69682;52.138;5.440;2023-09-19T01:30:26;100807.16;;;14.05;87.42
80184;BME280;69682;52.138;5.440;2023-09-19T01:32:54;100807.59;;;14.00;87.53
80184;BME280;69682;52.138;5.440;2023-09-19T01:35:20;100811.25;;;13.99;87.75
80184;BME280;69682;52.138;5.440;2023-09-19T01:37:47;100816.75;;;13.98;88.01
80184;BME280;69682;52.138;5.440;2023-09-19T01:40:16;100812.09;;;14.00;87.83
80184;BME280;69682;52.138;5.440;2023-09-19T01:43:05;100809.69;;;13.97;87.53
80184;BME280;69682;52.138;5.440;2023-09-19T01:46:04;100808.84;;;13.96;87.70
80184;BME280;69682;52.138;5.440;2023-09-19T01:48:49;100815.03;;;13.97;87.90
80184;BME280;69682;52.138;5.440;2023-09-19T01:51:43;100821.13;;;13.99;87.68
80184;BME280;69682;52.138;5.440;2023-09-19T01:54:16;100820.41;;;13.97;87.77
80184;BME280;69682;52.138;5.440;2023-09-19T01:57:17;100830.84;;;14.00;87.95
80184;BME280;69682;52.138;5.440;2023-09-19T01:59:45;100823.50;;;14.02;88.17
80184;BME280;69682;52.138;5.440;2023-09-19T02:02:16;100824.22;;;14.04;88.04
80184;BME280;69682;52.138;5.440;2023-09-19T02:04:44;100828.03;;;14.01;87.81
80184;BME280;69682;52.138;5.440;2023-09-19T02:07:10;100824.50;;;14.01;87.88
80184;BME280;69682;52.138;5.440;2023-09-19T02:09:37;100828.88;;;14.02;87.72
80184;BME280;69682;52.138;5.440;2023-09-19T02:12:05;100821.13;;;13.99;87.41
80184;BME280;69682;52.138;5.440;2023-09-19T02:14:32;100816.59;;;13.99;87.31
80184;BME280;69682;52.138;5.440;2023-09-19T02:16:59;100817.72;;;13.97;87.29
80184;BME280;69682;52.138;5.440;2023-09-19T02:19:27;100818.88;;;13.94;87.02
80184;BME280;69682;52.138;5.440;2023-09-19T02:21:54;100811.97;;;13.92;87.04
80184;BME280;69682;52.138;5.440;2023-09-19T02:24:21;100816.59;;;13.90;87.07
80184;BME280;69682;52.138;5.440;2023-09-19T02:26:47;100821.81;;;13.91;87.06
80184;BME280;69682;52.138;5.440;2023-09-19T02:29:14;100822.94;;;13.89;86.90
80184;BME280;69682;52.138;5.440;2023-09-19T02:31:40;100832.09;;;13.86;86.33
80184;BME280;69682;52.138;5.440;2023-09-19T02:34:07;100836.63;;;13.85;86.12
80184;BME280;69682;52.138;5.440;2023-09-19T02:36:36;100837.31;;;13.88;86.10
80184;BME280;69682;52.138;5.440;2023-09-19T02:39:02;100832.22;;;13.84;85.68
80184;BME280;69682;52.138;5.440;2023-09-19T02:41:31;100839.56;;;13.82;85.75
80184;BME280;69682;52.138;5.440;2023-09-19T02:43:59;100837.03;;;13.81;86.13
80184;BME280;69682;52.138;5.440;2023-09-19T02:46:25;100832.66;;;13.80;86.07
80184;BME280;69682;52.138;5.440;2023-09-19T02:48:52;100838.41;;;13.75;85.84
80184;BME280;69682;52.138;5.440;2023-09-19T02:51:21;100841.38;;;13.72;85.78
80184;BME280;69682;52.138;5.440;2023-09-19T02:53:48;100834.59;;;13.68;85.43
80184;BME280;69682;52.138;5.440;2023-09-19T02:56:15;100836.00;;;13.62;85.35
80184;BME280;69682;52.138;5.440;2023-09-19T02:58:42;100836.97;;;13.61;85.75
80184;BME280;69682;52.138;5.440;2023-09-19T03:01:10;100844.69;;;13.55;85.62
80184;BME280;69682;52.138;5.440;2023-09-19T03:03:40;100844.56;;;13.56;85.58
80184;BME280;69682;52.138;5.440;2023-09-19T03:06:07;100839.78;;;13.50;85.08
80184;BME280;69682;52.138;5.440;2023-09-19T03:08:36;100840.28;;;13.44;85.41
80184;BME280;69682;52.138;5.440;2023-09-19T03:11:03;100833.97;;;13.45;85.03
80184;BME280;69682;52.138;5.440;2023-09-19T03:13:32;100833.41;;;13.42;85.28
80184;BME280;69682;52.138;5.440;2023-09-19T03:15:59;100829.00;;;13.40;84.55
80184;BME280;69682;52.138;5.440;2023-09-19T03:18:25;100835.91;;;13.33;84.69
80184;BME280;69682;52.138;5.440;2023-09-19T03:20:54;100826.44;;;13.29;84.79
80184;BME280;69682;52.138;5.440;2023-09-19T03:23:27;100837.41;;;13.26;84.40
80184;BME280;69682;52.138;5.440;2023-09-19T03:25:55;100833.41;;;13.21;83.78
80184;BME280;69682;52.138;5.440;2023-09-19T03:28:22;100830.03;;;13.18;84.18
80184;BME280;69682;52.138;5.440;2023-09-19T03:31:03;100831.16;;;13.16;84.28
80184;BME280;69682;52.138;5.440;2023-09-19T03:33:29;100831.41;;;13.13;84.24
80184;BME280;69682;52.138;5.440;2023-09-19T03:36:01;100830.69;;;13.11;84.31
80184;BME280;69682;52.138;5.440;2023-09-19T03:38:32;100832.78;;;13.07;84.00
80184;BME280;69682;52.138;5.440;2023-09-19T03:41:01;100837.56;;;13.04;83.29
80184;BME280;69682;52.138;5.440;2023-09-19T03:43:28;100832.88;;;12.96;83.57
80184;BME280;69682;52.138;5.440;2023-09-19T03:45:55;100825.25;;;12.91;83.61
80184;BME280;69682;52.138;5.440;2023-09-19T03:48:21;100824.66;;;12.88;83.35
80184;BME280;69682;52.138;5.440;2023-09-19T03:50:49;100821.28;;;12.86;82.98
80184;BME280;69682;52.138;5.440;2023-09-19T03:53:16;100820.56;;;12.84;83.28
80184;BME280;69682;52.138;5.440;2023-09-19T03:55:44;100836.59;;;12.84;82.74
80184;BME280;69682;52.138;5.440;2023-09-19T03:58:11;100828.84;;;12.81;83.37
80184;BME280;69682;52.138;5.440;2023-09-19T04:00:38;100836.28;;;12.77;82.77
80184;BME280;69682;52.138;5.440;2023-09-19T04:03:05;100843.59;;;12.75;82.54
80184;BME280;69682;52.138;5.440;2023-09-19T04:05:33;100855.25;;;12.74;82.39
80184;BME280;69682;52.138;5.440;2023-09-19T04:08:00;100849.91;;;12.74;81.94
80184;BME280;69682;52.138;5.440;2023-09-19T04:10:27;100853.19;;;12.78;82.34
80184;BME280;69682;52.138;5.440;2023-09-19T04:12:55;100859.25;;;12.80;82.14
80184;BME280;69682;52.138;5.440;2023-09-19T04:15:23;100867.66;;;12.75;81.55
80184;BME280;69682;52.138;5.440;2023-09-19T04:17:50;100871.81;;;12.68;81.79
80184;BME280;69682;52.138;5.440;2023-09-19T04:20:18;100855.06;;;12.66;81.76
80184;BME280;69682;52.138;5.440;2023-09-19T04:22:46;100868.44;;;12.66;81.42
80184;BME280;69682;52.138;5.440;2023-09-19T04:25:13;100863.09;;;12.66;80.96
80184;BME280;69682;52.138;5.440;2023-09-19T04:27:40;100882.78;;;12.65;81.15
80184;BME280;69682;52.138;5.440;2023-09-19T04:30:10;100878.53;;;12.62;81.59
80184;BME280;69682;52.138;5.440;2023-09-19T04:32:38;100889.09;;;12.64;81.54
80184;BME280;69682;52.138;5.440;2023-09-19T04:35:10;100883.03;;;12.62;81.22
80184;BME280;69682;52.138;5.440;2023-09-19T04:37:38;100887.78;;;12.58;80.76
80184;BME280;69682;52.138;5.440;2023-09-19T04:40:07;100892.41;;;12.56;81.24
80184;BME280;69682;52.138;5.440;2023-09-19T04:42:42;100902.38;;;12.54;81.54
80184;BME280;69682;52.138;5.440;2023-09-19T04:45:09;100913.91;;;12.55;81.07
80184;BME280;69682;52.138;5.440;2023-09-19T04:47:37;100913.06;;;12.54;81.48
80184;BME280;69682;52.138;5.440;2023-09-19T04:50:07;100909.41;;;12.55;81.01
80184;BME280;69682;52.138;5.440;2023-09-19T04:52:34;100907.72;;;12.54;81.56
80184;BME280;69682;52.138;5.440;2023-09-19T04:55:01;100900.44;;;12.56;80.95
80184;BME280;69682;52.138;5.440;2023-09-19T04:57:28;100900.53;;;12.55;80.90
80184;BME280;69682;52.138;5.440;2023-09-19T04:59:54;100892.53;;;12.55;81.18
80184;BME280;69682;52.138;5.440;2023-09-19T05:02:21;100895.94;;;12.57;80.44
80184;BME280;69682;52.138;5.440;2023-09-19T05:04:48;100898.72;;;12.55;80.79
80184;BME280;69682;52.138;5.440;2023-09-19T05:07:14;100897.03;;;12.54;80.58
80184;BME280;69682;52.138;5.440;2023-09-19T05:09:41;100906.75;;;12.55;80.65
80184;BME280;69682;52.138;5.440;2023-09-19T05:12:08;100906.75;;;12.55;80.71
80184;BME280;69682;52.138;5.440;2023-09-19T05:14:37;100906.47;;;12.58;80.71
80184;BME280;69682;52.138;5.440;2023-09-19T05:17:03;100912.09;;;12.55;80.69
80184;BME280;69682;52.138;5.440;2023-09-19T05:19:30;100913.06;;;12.54;80.68
80184;BME280;69682;52.138;5.440;2023-09-19T05:21:57;100914.91;;;12.54;80.79
80184;BME280;69682;52.138;5.440;2023-09-19T05:24:23;100906.75;;;12.55;81.05
80184;BME280;69682;52.138;5.440;2023-09-19T05:26:52;100907.97;;;12.51;81.12
80184;BME280;69682;52.138;5.440;2023-09-19T05:29:21;100913.31;;;12.51;80.83
80184;BME280;69682;52.138;5.440;2023-09-19T05:31:48;100916.00;;;12.51;81.09
80184;BME280;69682;52.138;5.440;2023-09-19T05:34:16;100906.16;;;12.52;81.04
80184;BME280;69682;52.138;5.440;2023-09-19T05:36:43;100914.16;;;12.52;81.23
80184;BME280;69682;52.138;5.440;2023-09-19T05:39:09;100899.22;;;12.49;81.57
80184;BME280;69682;52.138;5.440;2023-09-19T05:41:36;100901.78;;;12.50;81.60
80184;BME280;69682;52.138;5.440;2023-09-19T05:44:03;100892.94;;;12.50;81.51
80184;BME280;69682;52.138;5.440;2023-09-19T05:46:29;100901.53;;;12.54;81.29
80184;BME280;69682;52.138;5.440;2023-09-19T05:48:56;100907.56;;;12.56;81.21
80184;BME280;69682;52.138;5.440;2023-09-19T05:51:23;100905.63;;;12.58;81.48
80184;BME280;69682;52.138;5.440;2023-09-19T05:53:49;100912.56;;;12.60;81.60
80184;BME280;69682;52.138;5.440;2023-09-19T05:56:16;100918.63;;;12.62;81.24
80184;BME280;69682;52.138;5.440;2023-09-19T05:58:43;100922.88;;;12.65;81.52
80184;BME280;69682;52.138;5.440;2023-09-19T06:01:10;100924.31;;;12.69;81.66
80184;BME280;69682;52.138;5.440;2023-09-19T06:03:37;100917.72;;;12.73;81.37
80184;BME280;69682;52.138;5.440;2023-09-19T06:06:04;100916.75;;;12.74;81.19
80184;BME280;69682;52.138;5.440;2023-09-19T06:08:33;100921.97;;;12.76;82.03
80184;BME280;69682;52.138;5.440;2023-09-19T06:11:00;100927.50;;;12.84;81.17
80184;BME280;69682;52.138;5.440;2023-09-19T06:13:29;100934.22;;;12.78;80.94
80184;BME280;69682;52.138;5.440;2023-09-19T06:15:56;100946.59;;;12.79;81.24
80184;BME280;69682;52.138;5.440;2023-09-19T06:18:23;100941.25;;;12.79;81.35
80184;BME280;69682;52.138;5.440;2023-09-19T06:20:52;100936.91;;;12.78;81.73
80184;BME280;69682;52.138;5.440;2023-09-19T06:23:21;100944.81;;;12.80;81.86
80184;BME280;69682;52.138;5.440;2023-09-19T06:25:48;100943.81;;;12.81;81.88
80184;BME280;69682;52.138;5.440;2023-09-19T06:28:15;100946.34;;;12.82;81.84
80184;BME280;69682;52.138;5.440;2023-09-19T06:30:44;100939.06;;;12.84;81.67
80184;BME280;69682;52.138;5.440;2023-09-19T06:33:11;100946.13;;;12.85;81.92
80184;BME280;69682;52.138;5.440;2023-09-19T06:35:43;100945.84;;;12.88;81.68
80184;BME280;69682;52.138;5.440;2023-09-19T06:38:11;100931.25;;;12.92;81.41
80184;BME280;69682;52.138;5.440;2023-09-19T06:40:39;100928.41;;;12.94;81.29
80184;BME280;69682;52.138;5.440;2023-09-19T06:43:10;100926.34;;;12.98;81.85
80184;BME280;69682;52.138;5.440;2023-09-19T06:45:37;100933.28;;;13.00;81.56
80184;BME280;69682;52.138;5.440;2023-09-19T06:48:04;100927.50;;;13.05;81.82
80184;BME280;69682;52.138;5.440;2023-09-19T06:50:32;100931.66;;;13.09;81.52
80184;BME280;69682;52.138;5.440;2023-09-19T06:53:00;100933.19;;;13.11;81.42
80184;BME280;69682;52.138;5.440;2023-09-19T06:55:27;100925.63;;;13.16;81.77
80184;BME280;69682;52.138;5.440;2023-09-19T06:57:59;100925.22;;;13.21;82.14
80184;BME280;69682;52.138;5.440;2023-09-19T07:00:25;100928.50;;;13.25;82.30
80184;BME280;69682;52.138;5.440;2023-09-19T07:02:56;100927.41;;;13.27;82.10
80184;BME280;69682;52.138;5.440;2023-09-19T07:05:23;100924.47;;;13.30;81.92
80184;BME280;69682;52.138;5.440;2023-09-19T07:07:49;100925.88;;;13.34;81.99
80184;BME280;69682;52.138;5.440;2023-09-19T07:10:16;100933.38;;;13.40;82.10
80184;BME280;69682;52.138;5.440;2023-09-19T07:12:44;100935.69;;;13.45;82.15
80184;BME280;69682;52.138;5.440;2023-09-19T07:15:11;100922.03;;;13.48;82.00
80184;BME280;69682;52.138;5.440;2023-09-19T07:17:38;100933.03;;;13.55;82.16
80184;BME280;69682;52.138;5.440;2023-09-19T07:20:04;100935.31;;;13.59;81.92
80184;BME280;69682;52.138;5.440;2023-09-19T07:22:34;100937.59;;;13.64;81.90
80184;BME280;69682;52.138;5.440;2023-09-19T07:25:01;100947.91;;;13.69;81.75
80184;BME280;69682;52.138;5.440;2023-09-19T07:27:28;100950.16;;;13.73;81.71
80184;BME280;69682;52.138;5.440;2023-09-19T07:29:54;100955.25;;;13.76;81.61
80184;BME280;69682;52.138;5.440;2023-09-19T07:32:21;100955.84;;;13.80;81.74
80184;BME280;69682;52.138;5.440;2023-09-19T07:34:47;100964.44;;;13.83;81.54
80184;BME280;69682;52.138;5.440;2023-09-19T07:37:14;100963.34;;;13.86;81.32
80184;BME280;69682;52.138;5.440;2023-09-19T07:39:42;100967.31;;;13.92;80.59
80184;BME280;69682;52.138;5.440;2023-09-19T07:42:09;100956.16;;;13.96;80.89
80184;BME280;69682;52.138;5.440;2023-09-19T07:44:38;100968.16;;;14.02;80.84
80184;BME280;69682;52.138;5.440;2023-09-19T07:47:04;100963.38;;;14.05;80.61
80184;BME280;69682;52.138;5.440;2023-09-19T07:49:31;100966.22;;;14.14;80.50
80184;BME280;69682;52.138;5.440;2023-09-19T07:51:58;100975.56;;;14.19;80.47
80184;BME280;69682;52.138;5.440;2023-09-19T07:54:25;100958.09;;;14.25;80.63
80184;BME280;69682;52.138;5.440;2023-09-19T07:56:56;100954.72;;;14.32;80.01
80184;BME280;69682;52.138;5.440;2023-09-19T07:59:24;100971.22;;;14.38;79.93
80184;BME280;69682;52.138;5.440;2023-09-19T08:01:51;100963.78;;;14.41;79.64
80184;BME280;69682;52.138;5.440;2023-09-19T08:04:18;100965.19;;;14.45;79.90
80184;BME280;69682;52.138;5.440;2023-09-19T08:06:45;100956.84;;;14.48;79.69
80184;BME280;69682;52.138;5.440;2023-09-19T08:09:12;100961.84;;;14.53;79.06
80184;BME280;69682;52.138;5.440;2023-09-19T08:11:42;100965.09;;;14.57;79.64
80184;BME280;69682;52.138;5.440;2023-09-19T08:14:10;100979.78;;;14.62;79.97
80184;BME280;69682;52.138;5.440;2023-09-19T08:16:40;100973.97;;;14.67;79.75
80184;BME280;69682;52.138;5.440;2023-09-19T08:19:10;100969.03;;;14.72;79.81
80184;BME280;69682;52.138;5.440;2023-09-19T08:21:36;100968.63;;;14.76;79.38
80184;BME280;69682;52.138;5.440;2023-09-19T08:24:03;100955.91;;;14.79;79.73
80184;BME280;69682;52.138;5.440;2023-09-19T08:26:30;100966.06;;;14.85;79.37
80184;BME280;69682;52.138;5.440;2023-09-19T08:28:57;100956.91;;;14.87;78.83
80184;BME280;69682;52.138;5.440;2023-09-19T08:31:24;100960.41;;;14.88;79.52
80184;BME280;69682;52.138;5.440;2023-09-19T08:33:52;100948.56;;;14.90;79.16
80184;BME280;69682;52.138;5.440;2023-09-19T08:36:19;100966.09;;;14.94;79.03
80184;BME280;69682;52.138;5.440;2023-09-19T08:38:46;100958.59;;;14.98;79.08
80184;BME280;69682;52.138;5.440;2023-09-19T08:41:12;100958.03;;;15.04;79.26
80184;BME280;69682;52.138;5.440;2023-09-19T08:43:40;100957.31;;;15.12;79.29
80184;BME280;69682;52.138;5.440;2023-09-19T08:46:16;100955.19;;;15.15;79.04
80184;BME280;69682;52.138;5.440;2023-09-19T08:49:01;100951.78;;;15.13;78.59
80184;BME280;69682;52.138;5.440;2023-09-19T08:51:43;100946.00;;;15.18;79.01
80184;BME280;69682;52.138;5.440;2023-09-19T08:54:26;100941.72;;;15.25;78.81
80184;BME280;69682;52.138;5.440;2023-09-19T08:57:00;100945.53;;;15.32;78.63
80184;BME280;69682;52.138;5.440;2023-09-19T08:59:32;100949.06;;;15.33;78.03
80184;BME280;69682;52.138;5.440;2023-09-19T09:02:02;100948.50;;;15.39;78.35
80184;BME280;69682;52.138;5.440;2023-09-19T09:04:30;100949.59;;;15.46;78.27
80184;BME280;69682;52.138;5.440;2023-09-19T09:06:57;100957.91;;;15.53;77.75
80184;BME280;69682;52.138;5.440;2023-09-19T09:09:24;100948.88;;;15.54;77.98
80184;BME280;69682;52.138;5.440;2023-09-19T09:11:51;100960.72;;;15.61;77.40
80184;BME280;69682;52.138;5.440;2023-09-19T09:14:20;100957.03;;;15.72;77.83
80184;BME280;69682;52.138;5.440;2023-09-19T09:16:47;100957.69;;;15.83;77.08
80184;BME280;69682;52.138;5.440;2023-09-19T09:19:15;100968.56;;;15.92;76.27
80184;BME280;69682;52.138;5.440;2023-09-19T09:21:51;100953.28;;;15.92;76.24
80184;BME280;69682;52.138;5.440;2023-09-19T09:27:03;100948.38;;;16.05;75.57
80184;BME280;69682;52.138;5.440;2023-09-19T09:29:41;100941.84;;;16.08;75.90
80184;BME280;69682;52.138;5.440;2023-09-19T09:32:21;100938.75;;;16.03;75.38
80184;BME280;69682;52.138;5.440;2023-09-19T09:37:18;100932.72;;;16.01;74.43
80184;BME280;69682;52.138;5.440;2023-09-19T09:39:53;100935.50;;;16.09;74.54
80184;BME280;69682;52.138;5.440;2023-09-19T09:45:17;100931.44;;;16.23;74.44
80184;BME280;69682;52.138;5.440;2023-09-19T09:47:46;100927.41;;;16.37;74.04
80184;BME280;69682;52.138;5.440;2023-09-19T09:50:27;100922.94;;;16.45;73.17
80184;BME280;69682;52.138;5.440;2023-09-19T09:53:29;100925.25;;;16.58;72.95
80184;BME280;69682;52.138;5.440;2023-09-19T09:56:03;100923.69;;;16.73;72.71
80184;BME280;69682;52.138;5.440;2023-09-19T09:58:34;100920.03;;;16.74;72.00
80184;BME280;69682;52.138;5.440;2023-09-19T10:01:03;100931.63;;;16.75;72.42
80184;BME280;69682;52.138;5.440;2023-09-19T10:03:38;100930.34;;;16.79;72.96
80184;BME280;69682;52.138;5.440;2023-09-19T10:06:13;100920.28;;;16.81;72.75
80184;BME280;69682;52.138;5.440;2023-09-19T10:09:03;100928.88;;;16.85;72.72
80184;BME280;69682;52.138;5.440;2023-09-19T10:11:48;100920.47;;;16.88;72.52
80184;BME280;69682;52.138;5.440;2023-09-19T10:14:27;100930.28;;;16.89;71.02
80184;BME280;69682;52.138;5.440;2023-09-19T10:16:59;100928.19;;;16.83;70.89
80184;BME280;69682;52.138;5.440;2023-09-19T10:19:37;100921.94;;;16.82;71.23
80184;BME280;69682;52.138;5.440;2023-09-19T10:22:04;100944.50;;;16.81;70.54
80184;BME280;69682;52.138;5.440;2023-09-19T10:24:35;100925.97;;;16.78;70.51
80184;BME280;69682;52.138;5.440;2023-09-19T10:27:14;100923.97;;;16.80;71.05
80184;BME280;69682;52.138;5.440;2023-09-19T10:29:49;100899.75;;;16.80;70.29
80184;BME280;69682;52.138;5.440;2023-09-19T10:32:18;100919.72;;;16.95;70.33
80184;BME280;69682;52.138;5.440;2023-09-19T10:34:47;100907.31;;;17.02;70.30
80184;BME280;69682;52.138;5.440;2023-09-19T10:37:23;100903.53;;;17.13;70.21
80184;BME280;69682;52.138;5.440;2023-09-19T10:39:53;100901.78;;;17.30;70.98
80184;BME280;69682;52.138;5.440;2023-09-19T10:42:38;100879.00;;;17.51;69.58
80184;BME280;69682;52.138;5.440;2023-09-19T10:45:12;100893.03;;;17.62;69.62
80184;BME280;69682;52.138;5.440;2023-09-19T10:47:41;100894.38;;;17.66;69.54
80184;BME280;69682;52.138;5.440;2023-09-19T10:50:19;100887.09;;;17.59;69.11
80184;BME280;69682;52.138;5.440;2023-09-19T10:52:49;100882.16;;;17.46;69.21
80184;BME280;69682;52.138;5.440;2023-09-19T10:55:19;100885.34;;;17.41;69.33
80184;BME280;69682;52.138;5.440;2023-09-19T10:57:49;100879.75;;;17.35;68.94
80184;BME280;69682;52.138;5.440;2023-09-19T11:00:24;100879.59;;;17.36;69.21
80184;BME280;69682;52.138;5.440;2023-09-19T11:05:36;100878.03;;;17.60;70.01
80184;BME280;69682;52.138;5.440;2023-09-19T11:08:10;100863.25;;;17.72;69.00
80184;BME280;69682;52.138;5.440;2023-09-19T11:10:49;100861.78;;;17.78;68.73
80184;BME280;69682;52.138;5.440;2023-09-19T11:13:35;100858.91;;;17.79;69.38
80184;BME280;69682;52.138;5.440;2023-09-19T11:16:18;100873.56;;;17.77;68.60
80184;BME280;69682;52.138;5.440;2023-09-19T11:18:53;100866.09;;;17.70;69.30
80184;BME280;69682;52.138;5.440;2023-09-19T11:26:49;100853.88;;;17.84;68.13
80184;BME280;69682;52.138;5.440;2023-09-19T11:29:30;100857.16;;;18.04;68.57
80184;BME280;69682;52.138;5.440;2023-09-19T11:32:11;100862.38;;;18.14;67.86
80184;BME280;69682;52.138;5.440;2023-09-19T11:34:48;100860.19;;;18.01;66.63
80184;BME280;69682;52.138;5.440;2023-09-19T11:40:09;100840.09;;;17.87;67.98
80184;BME280;69682;52.138;5.440;2023-09-19T11:42:49;100839.44;;;17.85;67.73
80184;BME280;69682;52.138;5.440;2023-09-19T11:48:24;100845.44;;;17.79;68.42
80184;BME280;69682;52.138;5.440;2023-09-19T11:50:54;100842.28;;;17.84;67.13
80184;BME280;69682;52.138;5.440;2023-09-19T11:53:22;100840.44;;;17.92;67.84
80184;BME280;69682;52.138;5.440;2023-09-19T11:55:49;100821.25;;;18.04;68.30
80184;BME280;69682;52.138;5.440;2023-09-19T11:58:17;100831.03;;;18.05;67.38
80184;BME280;69682;52.138;5.440;2023-09-19T12:00:54;100843.50;;;18.06;67.06
80184;BME280;69682;52.138;5.440;2023-09-19T12:03:23;100838.97;;;18.06;65.56
80184;BME280;69682;52.138;5.440;2023-09-19T12:05:56;100843.50;;;18.06;65.79
80184;BME280;69682;52.138;5.440;2023-09-19T12:08:25;100851.06;;;18.02;64.97
80184;BME280;69682;52.138;5.440;2023-09-19T12:10:53;100860.19;;;18.01;65.80
80184;BME280;69682;52.138;5.440;2023-09-19T12:13:21;100862.88;;;18.01;65.96
80184;BME280;69682;52.138;5.440;2023-09-19T12:15:48;100847.06;;;18.06;66.00
80184;BME280;69682;52.138;5.440;2023-09-19T12:18:29;100853.78;;;18.10;65.60
80184;BME280;69682;52.138;5.440;2023-09-19T12:20:57;100852.94;;;18.10;66.19
80184;BME280;69682;52.138;5.440;2023-09-19T12:23:24;100851.28;;;18.09;65.20
80184;BME280;69682;52.138;5.440;2023-09-19T12:25:54;100842.31;;;18.08;65.09
80184;BME280;69682;52.138;5.440;2023-09-19T12:28:26;100842.31;;;18.08;65.07
80184;BME280;69682;52.138;5.440;2023-09-19T12:30:53;100855.13;;;18.06;65.41
80184;BME280;69682;52.138;5.440;2023-09-19T12:33:24;100852.78;;;18.03;66.27
80184;BME280;69682;52.138;5.440;2023-09-19T12:35:54;100843.81;;;18.03;65.39
80184;BME280;69682;52.138;5.440;2023-09-19T12:38:27;100842.84;;;18.04;65.84
80184;BME280;69682;52.138;5.440;2023-09-19T12:41:02;100844.19;;;18.08;65.84
80184;BME280;69682;52.138;5.440;2023-09-19T12:43:30;100844.19;;;18.08;66.00
80184;BME280;69682;52.138;5.440;2023-09-19T12:45:59;100848.22;;;18.04;65.81
80184;BME280;69682;52.138;5.440;2023-09-19T12:48:26;100832.38;;;18.01;66.42
80184;BME280;69682;52.138;5.440;2023-09-19T12:51:02;100851.72;;;17.96;66.70
80184;BME280;69682;52.138;5.440;2023-09-19T12:53:43;100852.25;;;17.91;66.77
80184;BME280;69682;52.138;5.440;2023-09-19T12:56:17;100848.84;;;17.89;66.65
80184;BME280;69682;52.138;5.440;2023-09-19T12:59:02;100849.88;;;17.88;67.64
80184;BME280;69682;52.138;5.440;2023-09-19T13:01:30;100847.00;;;17.90;67.43
80184;BME280;69682;52.138;5.440;2023-09-19T13:04:16;100852.56;;;17.97;67.51
80184;BME280;69682;52.138;5.440;2023-09-19T13:06:48;100852.09;;;18.01;67.00
80184;BME280;69682;52.138;5.440;2023-09-19T13:09:17;100842.84;;;18.04;67.26
80184;BME280;69682;52.138;5.440;2023-09-19T13:11:44;100861.38;;;18.07;66.99
80184;BME280;69682;52.138;5.440;2023-09-19T13:14:23;100843.00;;;18.10;66.70
80184;BME280;69682;52.138;5.440;2023-09-19T13:17:04;100841.31;;;18.09;66.74
80184;BME280;69682;52.138;5.440;2023-09-19T13:25:07;100867.91;;;17.96;67.25
80184;BME280;69682;52.138;5.440;2023-09-19T13:27:34;100864.84;;;17.91;68.24
80184;BME280;69682;52.138;5.440;2023-09-19T13:30:00;100865.50;;;17.85;68.18
80184;BME280;69682;52.138;5.440;2023-09-19T13:32:27;100865.00;;;17.81;68.15
80184;BME280;69682;52.138;5.440;2023-09-19T13:34:53;100859.47;;;17.83;68.64
80184;BME280;69682;52.138;5.440;2023-09-19T13:37:20;100846.66;;;17.93;68.45
80184;BME280;69682;52.138;5.440;2023-09-19T13:39:54;100852.94;;;18.02;68.30
80184;BME280;69682;52.138;5.440;2023-09-19T13:42:21;100844.50;;;18.05;67.62
80184;BME280;69682;52.138;5.440;2023-09-19T13:44:48;100826.00;;;18.10;67.06
80184;BME280;69682;52.138;5.440;2023-09-19T13:47:14;100839.81;;;18.15;66.90
80184;BME280;69682;52.138;5.440;2023-09-19T13:49:42;100832.56;;;18.15;67.29
80184;BME280;69682;52.138;5.440;2023-09-19T13:52:09;100826.00;;;18.18;67.60